Stratford, California
Current Conditions -  °F | °C
As of 12:56 PM on Thursday 20 Nov 2014 (Local Time) from KNLC Reporting Station
Haze Haze  
Wind Chill: 60°   Ceiling: 4800
Heat Index: 60°   Visibility: 6mi
Dew Point: 51°   Wind: 6mph
Humidity: 72%   Direction: 330°NNW
Pressure: 30.08"   Gusts: NA
Location:  36.19°N, 119.82°W
Report Text: KNLC 202056Z 33005KT 6SM HZ BKN048 OVC070 16/10 A3008 RMK AO2 SLP185 RH/72 T01560106 56020 $
Loading
Personal Weather Stations






























Interactive Weather Map New forecast layout! Learn more

10-Day Weather Forecast

Advertisements
Track Severe Weather on mobile